createdAt,value
2023-03-23T15:59:03.725Z,9.32
2023-03-23T16:04:10.404Z,9.30
2023-03-23T16:09:03.577Z,8.23
2023-03-23T16:13:55.865Z,10.75
2023-03-23T16:19:28.184Z,9.85
2023-03-23T16:24:19.865Z,5.55
2023-03-23T16:29:24.392Z,6.75
2023-03-23T16:34:28.953Z,8.30
2023-03-23T16:39:20.528Z,8.43
2023-03-23T16:44:12.712Z,9.48
2023-03-23T16:49:04.367Z,8.55
2023-03-23T16:53:56.201Z,9.95
2023-03-23T16:58:48.002Z,13.80
2023-03-23T17:03:41.865Z,12.18
2023-03-23T17:08:34.592Z,10.63
2023-03-23T17:13:28.049Z,8.05
2023-03-23T17:18:19.788Z,7.53
2023-03-23T17:23:11.590Z,4.68
2023-03-23T17:28:05.821Z,5.95
2023-03-23T17:32:58.630Z,7.97
2023-03-23T17:37:50.332Z,6.95
2023-03-23T17:42:42.133Z,4.57
2023-03-23T17:47:34.024Z,6.05
2023-03-23T17:52:26.185Z,7.18
2023-03-23T17:57:18.025Z,7.15
2023-03-23T18:02:11.371Z,10.02
2023-03-23T18:07:03.064Z,8.13
2023-03-23T18:11:56.678Z,7.22
2023-03-23T18:16:48.595Z,8.13
2023-03-23T18:21:40.628Z,6.53
2023-03-23T18:26:32.283Z,7.47
2023-03-23T18:31:24.067Z,7.47
2023-03-23T18:36:18.387Z,3.85
2023-03-23T18:41:11.428Z,3.72
2023-03-23T18:46:03.434Z,5.93
2023-03-23T18:50:57.992Z,4.70
2023-03-23T18:55:51.405Z,3.88
2023-03-23T19:00:43.833Z,3.55
2023-03-23T19:05:38.681Z,4.55
2023-03-23T19:10:31.290Z,3.53
2023-03-23T19:15:24.441Z,6.65
2023-03-23T19:20:23.685Z,2.38
2023-03-23T19:25:27.925Z,4.93
2023-03-23T19:30:20.044Z,2.35
2023-03-23T19:35:12.258Z,3.53
2023-03-23T19:40:22.676Z,3.92
2023-03-23T19:45:18.386Z,2.55
2023-03-23T19:50:10.352Z,5.18
2023-03-23T19:55:02.215Z,2.42
2023-03-23T19:59:53.810Z,3.95
2023-03-23T20:04:46.034Z,3.28
2023-03-23T20:09:38.569Z,1.35
2023-03-23T20:14:30.506Z,2.00
2023-03-23T20:19:22.085Z,3.20
2023-03-23T20:24:13.929Z,4.70
2023-03-23T20:29:07.689Z,4.40
2023-03-23T20:34:03.899Z,4.35
2023-03-23T20:38:57.336Z,1.63
2023-03-23T20:43:48.971Z,3.85
2023-03-23T20:48:40.631Z,2.58
2023-03-23T20:53:33.676Z,0.90
2023-03-23T20:58:27.516Z,2.83
2023-03-23T21:03:19.099Z,1.63
2023-03-23T21:08:11.587Z,2.25
2023-03-23T21:13:04.484Z,2.85
2023-03-23T21:17:56.382Z,3.40
2023-03-23T21:22:48.167Z,3.63
2023-03-23T21:27:39.927Z,7.38
2023-03-23T21:32:32.136Z,7.63
2023-03-23T21:37:24.063Z,3.47
2023-03-23T21:42:15.693Z,3.42
2023-03-23T21:47:07.361Z,3.13
2023-03-23T21:51:59.121Z,4.97
2023-03-23T21:56:51.209Z,5.82
2023-03-23T22:01:42.845Z,5.32
2023-03-23T22:06:35.100Z,5.25
2023-03-23T22:11:30.952Z,4.03
2023-03-23T22:16:23.811Z,5.93
2023-03-23T22:21:17.135Z,2.42
2023-03-23T22:26:10.110Z,2.33
2023-03-23T22:31:05.318Z,4.55
2023-03-23T22:35:57.575Z,5.90
2023-03-23T22:40:57.463Z,6.88
2023-03-23T22:45:51.512Z,4.55
2023-03-23T22:50:43.544Z,10.10
2023-03-23T22:55:35.280Z,5.47
2023-03-23T23:00:27.569Z,10.45
2023-03-23T23:05:19.325Z,9.23
2023-03-23T23:10:11.058Z,13.98
2023-03-23T23:15:05.858Z,10.80
2023-03-23T23:19:58.944Z,8.70
2023-03-23T23:24:50.603Z,5.55
2023-03-23T23:29:42.303Z,6.97
2023-03-23T23:34:34.916Z,6.15
2023-03-23T23:39:27.784Z,8.18
2023-03-23T23:44:19.458Z,10.43
2023-03-23T23:49:11.092Z,12.50
2023-03-23T23:54:04.748Z,12.80
2023-03-23T23:58:56.948Z,16.02
